sensor_id;sensor_type;location;lat;lon;timestamp;temperature;humidity
5846;DHT22;2949;50.778;7.094;2023-08-01T00:02:17;17.00;99.90
5846;DHT22;2949;50.778;7.094;2023-08-01T00:04:43;17.00;99.90
5846;DHT22;2949;50.778;7.094;2023-08-01T00:07:08;17.00;99.90
5846;DHT22;2949;50.778;7.094;2023-08-01T00:09:34;17.00;99.90
5846;DHT22;2949;50.778;7.094;2023-08-01T00:11:59;17.00;99.90
5846;DHT22;2949;50.778;7.094;2023-08-01T00:14:25;17.00;99.90
5846;DHT22;2949;50.778;7.094;2023-08-01T00:16:51;17.10;99.90
5846;DHT22;2949;50.778;7.094;2023-08-01T00:19:17;17.10;99.90
5846;DHT22;2949;50.778;7.094;2023-08-01T00:21:43;17.10;99.90
5846;DHT22;2949;50.778;7.094;2023-08-01T00:24:08;17.10;99.90
5846;DHT22;2949;50.778;7.094;2023-08-01T00:26:34;17.00;99.90
5846;DHT22;2949;50.778;7.094;2023-08-01T00:29:00;17.00;99.90
5846;DHT22;2949;50.778;7.094;2023-08-01T00:31:25;17.00;99.90
5846;DHT22;2949;50.778;7.094;2023-08-01T00:33:51;17.00;99.90
5846;DHT22;2949;50.778;7.094;2023-08-01T00:36:16;16.90;99.90
5846;DHT22;2949;50.778;7.094;2023-08-01T00:38:42;16.90;99.90
5846;DHT22;2949;50.778;7.094;2023-08-01T00:41:12;16.90;99.90
5846;DHT22;2949;50.778;7.094;2023-08-01T00:43:37;16.90;99.90
5846;DHT22;2949;50.778;7.094;2023-08-01T00:46:05;16.90;99.90
5846;DHT22;2949;50.778;7.094;2023-08-01T00:48:31;16.90;99.90
5846;DHT22;2949;50.778;7.094;2023-08-01T00:50:59;16.90;99.90
5846;DHT22;2949;50.778;7.094;2023-08-01T00:53:26;16.90;99.90
5846;DHT22;2949;50.778;7.094;2023-08-01T00:55:52;16.90;99.90
5846;DHT22;2949;50.778;7.094;2023-08-01T00:58:21;16.90;99.90
5846;DHT22;2949;50.778;7.094;2023-08-01T01:00:47;17.00;99.90
5846;DHT22;2949;50.778;7.094;2023-08-01T01:03:14;17.00;99.90
5846;DHT22;2949;50.778;7.094;2023-08-01T01:06:28;17.00;99.90
5846;DHT22;2949;50.778;7.094;2023-08-01T01:08:28;17.00;99.90
5846;DHT22;2949;50.778;7.094;2023-08-01T01:10:53;17.00;99.90
5846;DHT22;2949;50.778;7.094;2023-08-01T01:13:19;17.00;99.90
5846;DHT22;2949;50.778;7.094;2023-08-01T01:15:44;17.00;99.90
5846;DHT22;2949;50.778;7.094;2023-08-01T01:18:10;17.00;99.90
5846;DHT22;2949;50.778;7.094;2023-08-01T01:20:36;17.00;99.90
5846;DHT22;2949;50.778;7.094;2023-08-01T01:23:04;17.00;99.90
5846;DHT22;2949;50.778;7.094;2023-08-01T01:25:32;17.00;99.90
5846;DHT22;2949;50.778;7.094;2023-08-01T01:27:59;17.00;99.90
5846;DHT22;2949;50.778;7.094;2023-08-01T01:30:25;17.00;99.90
5846;DHT22;2949;50.778;7.094;2023-08-01T01:32:52;17.00;99.90
5846;DHT22;2949;50.778;7.094;2023-08-01T01:35:18;17.00;99.90
5846;DHT22;2949;50.778;7.094;2023-08-01T01:37:43;17.00;99.90
5846;DHT22;2949;50.778;7.094;2023-08-01T01:40:09;17.00;99.90
5846;DHT22;2949;50.778;7.094;2023-08-01T01:42:34;17.00;99.90
5846;DHT22;2949;50.778;7.094;2023-08-01T01:45:00;17.00;99.90
5846;DHT22;2949;50.778;7.094;2023-08-01T01:47:26;17.00;99.90
5846;DHT22;2949;50.778;7.094;2023-08-01T01:49:51;17.00;99.90
5846;DHT22;2949;50.778;7.094;2023-08-01T01:52:16;17.00;99.90
5846;DHT22;2949;50.778;7.094;2023-08-01T01:54:42;17.00;99.90
5846;DHT22;2949;50.778;7.094;2023-08-01T01:57:08;17.00;99.90
5846;DHT22;2949;50.778;7.094;2023-08-01T01:59:33;17.00;99.90
5846;DHT22;2949;50.778;7.094;2023-08-01T02:01:59;17.00;99.90
5846;DHT22;2949;50.778;7.094;2023-08-01T02:04:25;17.00;99.90
5846;DHT22;2949;50.778;7.094;2023-08-01T02:06:50;17.00;99.90
5846;DHT22;2949;50.778;7.094;2023-08-01T02:09:18;17.00;99.90
5846;DHT22;2949;50.778;7.094;2023-08-01T02:11:44;17.00;99.90
5846;DHT22;2949;50.778;7.094;2023-08-01T02:14:09;17.00;99.90
5846;DHT22;2949;50.778;7.094;2023-08-01T02:16:35;17.00;99.90
5846;DHT22;2949;50.778;7.094;2023-08-01T02:19:00;17.00;99.90
5846;DHT22;2949;50.778;7.094;2023-08-01T02:21:26;17.00;99.90
5846;DHT22;2949;50.778;7.094;2023-08-01T02:23:51;17.10;99.90
5846;DHT22;2949;50.778;7.094;2023-08-01T02:26:17;17.10;99.90
5846;DHT22;2949;50.778;7.094;2023-08-01T02:28:42;17.10;99.90
5846;DHT22;2949;50.778;7.094;2023-08-01T02:31:08;17.10;99.90
5846;DHT22;2949;50.778;7.094;2023-08-01T02:33:33;17.10;99.90
5846;DHT22;2949;50.778;7.094;2023-08-01T02:35:59;17.10;99.90
5846;DHT22;2949;50.778;7.094;2023-08-01T02:38:24;17.10;99.90
5846;DHT22;2949;50.778;7.094;2023-08-01T02:40:50;17.10;99.90
5846;DHT22;2949;50.778;7.094;2023-08-01T02:43:15;17.00;99.90
5846;DHT22;2949;50.778;7.094;2023-08-01T02:45:42;17.00;99.90
5846;DHT22;2949;50.778;7.094;2023-08-01T02:48:08;17.10;99.90
5846;DHT22;2949;50.778;7.094;2023-08-01T02:50:33;17.00;99.90
5846;DHT22;2949;50.778;7.094;2023-08-01T02:52:59;17.00;99.90
5846;DHT22;2949;50.778;7.094;2023-08-01T02:55:24;16.90;99.90
5846;DHT22;2949;50.778;7.094;2023-08-01T02:57:50;16.80;99.90
5846;DHT22;2949;50.778;7.094;2023-08-01T03:00:15;16.80;99.90
5846;DHT22;2949;50.778;7.094;2023-08-01T03:02:42;16.70;99.90
5846;DHT22;2949;50.778;7.094;2023-08-01T03:05:09;16.60;99.90
5846;DHT22;2949;50.778;7.094;2023-08-01T03:07:35;16.60;99.90
5846;DHT22;2949;50.778;7.094;2023-08-01T03:10:01;16.50;99.90
5846;DHT22;2949;50.778;7.094;2023-08-01T03:12:27;16.50;99.90
5846;DHT22;2949;50.778;7.094;2023-08-01T03:14:52;16.50;99.90
5846;DHT22;2949;50.778;7.094;2023-08-01T03:17:18;16.40;99.90
5846;DHT22;2949;50.778;7.094;2023-08-01T03:19:43;16.40;99.90
5846;DHT22;2949;50.778;7.094;2023-08-01T03:22:10;16.40;99.90
5846;DHT22;2949;50.778;7.094;2023-08-01T03:24:35;16.30;99.90
5846;DHT22;2949;50.778;7.094;2023-08-01T03:27:01;16.30;99.90
5846;DHT22;2949;50.778;7.094;2023-08-01T03:29:27;16.30;99.90
5846;DHT22;2949;50.778;7.094;2023-08-01T03:31:52;16.30;99.90
5846;DHT22;2949;50.778;7.094;2023-08-01T03:34:18;16.20;99.90
5846;DHT22;2949;50.778;7.094;2023-08-01T03:36:44;16.20;99.90
5846;DHT22;2949;50.778;7.094;2023-08-01T03:39:09;16.10;99.90
5846;DHT22;2949;50.778;7.094;2023-08-01T03:41:36;16.10;99.90
5846;DHT22;2949;50.778;7.094;2023-08-01T03:44:02;16.10;99.90
5846;DHT22;2949;50.778;7.094;2023-08-01T03:46:28;16.00;99.90
5846;DHT22;2949;50.778;7.094;2023-08-01T03:48:54;16.00;99.90
5846;DHT22;2949;50.778;7.094;2023-08-01T03:51:19;15.90;99.90
5846;DHT22;2949;50.778;7.094;2023-08-01T03:53:46;15.90;99.90
5846;DHT22;2949;50.778;7.094;2023-08-01T03:56:11;15.90;99.90
5846;DHT22;2949;50.778;7.094;2023-08-01T03:58:37;15.80;99.90
5846;DHT22;2949;50.778;7.094;2023-08-01T04:01:02;15.90;99.90
5846;DHT22;2949;50.778;7.094;2023-08-01T04:03:28;15.80;99.90
5846;DHT22;2949;50.778;7.094;2023-08-01T04:05:53;15.80;99.90
5846;DHT22;2949;50.778;7.094;2023-08-01T04:08:20;15.80;99.90
5846;DHT22;2949;50.778;7.094;2023-08-01T04:10:45;15.80;99.90
5846;DHT22;2949;50.778;7.094;2023-08-01T04:13:11;15.80;99.90
5846;DHT22;2949;50.778;7.094;2023-08-01T04:15:36;15.80;99.90
5846;DHT22;2949;50.778;7.094;2023-08-01T04:18:02;15.80;99.90
5846;DHT22;2949;50.778;7.094;2023-08-01T04:20:28;15.80;99.90
5846;DHT22;2949;50.778;7.094;2023-08-01T04:22:53;15.80;99.90
5846;DHT22;2949;50.778;7.094;2023-08-01T04:25:19;15.80;99.90
5846;DHT22;2949;50.778;7.094;2023-08-01T04:27:44;15.80;99.90
5846;DHT22;2949;50.778;7.094;2023-08-01T04:30:10;15.80;99.90
5846;DHT22;2949;50.778;7.094;2023-08-01T04:32:36;15.80;99.90
5846;DHT22;2949;50.778;7.094;2023-08-01T04:35:01;15.90;99.90
5846;DHT22;2949;50.778;7.094;2023-08-01T04:37:27;15.90;99.90
5846;DHT22;2949;50.778;7.094;2023-08-01T04:39:52;15.90;99.90
5846;DHT22;2949;50.778;7.094;2023-08-01T04:42:18;15.90;99.90
5846;DHT22;2949;50.778;7.094;2023-08-01T04:44:43;15.90;99.90
5846;DHT22;2949;50.778;7.094;2023-08-01T04:47:09;15.90;99.90
5846;DHT22;2949;50.778;7.094;2023-08-01T04:49:34;15.90;99.90
5846;DHT22;2949;50.778;7.094;2023-08-01T04:52:00;15.90;99.90
5846;DHT22;2949;50.778;7.094;2023-08-01T04:54:25;15.90;99.90
5846;DHT22;2949;50.778;7.094;2023-08-01T04:56:51;15.90;99.90
5846;DHT22;2949;50.778;7.094;2023-08-01T04:59:16;15.90;99.90
5846;DHT22;2949;50.778;7.094;2023-08-01T05:01:42;15.90;99.90
5846;DHT22;2949;50.778;7.094;2023-08-01T05:04:08;15.80;99.90
5846;DHT22;2949;50.778;7.094;2023-08-01T05:06:33;15.80;99.90
5846;DHT22;2949;50.778;7.094;2023-08-01T05:09:00;15.80;99.90
5846;DHT22;2949;50.778;7.094;2023-08-01T05:11:25;15.80;99.90
5846;DHT22;2949;50.778;7.094;2023-08-01T05:13:51;15.70;99.90
5846;DHT22;2949;50.778;7.094;2023-08-01T05:16:16;15.70;99.90
5846;DHT22;2949;50.778;7.094;2023-08-01T05:18:42;15.60;99.90
5846;DHT22;2949;50.778;7.094;2023-08-01T05:21:07;15.60;99.90
5846;DHT22;2949;50.778;7.094;2023-08-01T05:23:33;15.60;99.90
5846;DHT22;2949;50.778;7.094;2023-08-01T05:25:58;15.60;99.90
5846;DHT22;2949;50.778;7.094;2023-08-01T05:28:24;15.70;99.90
5846;DHT22;2949;50.778;7.094;2023-08-01T05:30:49;15.80;99.90
5846;DHT22;2949;50.778;7.094;2023-08-01T05:33:15;15.90;99.90
5846;DHT22;2949;50.778;7.094;2023-08-01T05:35:40;16.10;99.90
5846;DHT22;2949;50.778;7.094;2023-08-01T05:38:06;16.30;99.90
5846;DHT22;2949;50.778;7.094;2023-08-01T05:40:31;16.50;99.90
5846;DHT22;2949;50.778;7.094;2023-08-01T05:42:57;16.60;99.90
5846;DHT22;2949;50.778;7.094;2023-08-01T05:45:22;16.70;99.90
5846;DHT22;2949;50.778;7.094;2023-08-01T05:47:48;16.70;99.90
5846;DHT22;2949;50.778;7.094;2023-08-01T05:50:13;16.80;99.90
5846;DHT22;2949;50.778;7.094;2023-08-01T05:52:39;16.80;99.90
5846;DHT22;2949;50.778;7.094;2023-08-01T05:55:05;16.70;99.90
5846;DHT22;2949;50.778;7.094;2023-08-01T05:57:31;16.70;99.90
5846;DHT22;2949;50.778;7.094;2023-08-01T05:59:56;16.70;99.90
5846;DHT22;2949;50.778;7.094;2023-08-01T06:02:22;16.70;99.90
5846;DHT22;2949;50.778;7.094;2023-08-01T06:04:47;16.80;99.90
5846;DHT22;2949;50.778;7.094;2023-08-01T06:07:13;17.10;99.90
5846;DHT22;2949;50.778;7.094;2023-08-01T06:09:39;17.50;99.90
5846;DHT22;2949;50.778;7.094;2023-08-01T06:12:04;17.90;99.90
5846;DHT22;2949;50.778;7.094;2023-08-01T06:14:30;18.20;99.90
5846;DHT22;2949;50.778;7.094;2023-08-01T06:16:56;18.30;99.90
5846;DHT22;2949;50.778;7.094;2023-08-01T06:19:21;18.40;99.90
5846;DHT22;2949;50.778;7.094;2023-08-01T06:21:47;18.50;99.90
5846;DHT22;2949;50.778;7.094;2023-08-01T06:24:13;18.50;99.90
5846;DHT22;2949;50.778;7.094;2023-08-01T06:26:38;18.40;99.90
5846;DHT22;2949;50.778;7.094;2023-08-01T06:29:04;18.40;99.90
5846;DHT22;2949;50.778;7.094;2023-08-01T06:31:30;18.40;99.90
5846;DHT22;2949;50.778;7.094;2023-08-01T06:33:55;18.40;99.90
5846;DHT22;2949;50.778;7.094;2023-08-01T06:36:21;18.20;99.90
5846;DHT22;2949;50.778;7.094;2023-08-01T06:38:46;18.30;99.90
5846;DHT22;2949;50.778;7.094;2023-08-01T06:41:12;18.40;99.90
5846;DHT22;2949;50.778;7.094;2023-08-01T06:43:37;18.70;99.90
5846;DHT22;2949;50.778;7.094;2023-08-01T06:46:04;19.20;99.90
5846;DHT22;2949;50.778;7.094;2023-08-01T06:48:31;19.20;99.90
5846;DHT22;2949;50.778;7.094;2023-08-01T06:50:56;19.80;99.90
5846;DHT22;2949;50.778;7.094;2023-08-01T06:53:22;20.00;99.90
5846;DHT22;2949;50.778;7.094;2023-08-01T06:55:47;21.10;99.90
5846;DHT22;2949;50.778;7.094;2023-08-01T06:58:13;22.50;99.90
5846;DHT22;2949;50.778;7.094;2023-08-01T07:00:38;22.20;99.90
5846;DHT22;2949;50.778;7.094;2023-08-01T07:03:04;21.40;99.90
5846;DHT22;2949;50.778;7.094;2023-08-01T07:05:29;20.90;99.90
5846;DHT22;2949;50.778;7.094;2023-08-01T07:07:55;21.00;99.90
5846;DHT22;2949;50.778;7.094;2023-08-01T07:10:22;22.70;99.90
5846;DHT22;2949;50.778;7.094;2023-08-01T07:12:48;25.10;99.90
5846;DHT22;2949;50.778;7.094;2023-08-01T07:15:14;25.60;99.90
5846;DHT22;2949;50.778;7.094;2023-08-01T07:17:39;24.50;99.90
5846;DHT22;2949;50.778;7.094;2023-08-01T07:20:05;24.20;99.90
5846;DHT22;2949;50.778;7.094;2023-08-01T07:22:30;23.20;99.90
5846;DHT22;2949;50.778;7.094;2023-08-01T07:24:56;22.80;99.90
5846;DHT22;2949;50.778;7.094;2023-08-01T07:27:22;22.30;99.90
5846;DHT22;2949;50.778;7.094;2023-08-01T07:29:47;21.80;99.90
5846;DHT22;2949;50.778;7.094;2023-08-01T07:32:13;21.10;99.90
5846;DHT22;2949;50.778;7.094;2023-08-01T07:34:39;20.50;99.90
5846;DHT22;2949;50.778;7.094;2023-08-01T07:37:05;19.80;99.90
5846;DHT22;2949;50.778;7.094;2023-08-01T07:39:30;19.40;99.90
5846;DHT22;2949;50.778;7.094;2023-08-01T07:41:56;19.00;99.90
5846;DHT22;2949;50.778;7.094;2023-08-01T07:44:21;18.90;99.90
5846;DHT22;2949;50.778;7.094;2023-08-01T07:46:47;19.30;99.90
5846;DHT22;2949;50.778;7.094;2023-08-01T07:49:13;20.00;99.90
5846;DHT22;2949;50.778;7.094;2023-08-01T07:51:38;22.60;99.90
5846;DHT22;2949;50.778;7.094;2023-08-01T07:54:04;24.70;99.90
5846;DHT22;2949;50.778;7.094;2023-08-01T07:56:29;25.90;99.90
5846;DHT22;2949;50.778;7.094;2023-08-01T07:58:55;26.70;99.90
5846;DHT22;2949;50.778;7.094;2023-08-01T08:01:20;26.80;99.90
5846;DHT22;2949;50.778;7.094;2023-08-01T08:03:46;26.00;99.90
5846;DHT22;2949;50.778;7.094;2023-08-01T08:06:11;25.60;99.90
5846;DHT22;2949;50.778;7.094;2023-08-01T08:08:37;24.80;99.90
5846;DHT22;2949;50.778;7.094;2023-08-01T08:11:03;24.90;99.90
5846;DHT22;2949;50.778;7.094;2023-08-01T08:13:28;24.80;99.90
5846;DHT22;2949;50.778;7.094;2023-08-01T08:15:57;26.20;99.90
5846;DHT22;2949;50.778;7.094;2023-08-01T08:18:23;26.50;99.90
5846;DHT22;2949;50.778;7.094;2023-08-01T08:20:49;26.30;99.90
5846;DHT22;2949;50.778;7.094;2023-08-01T08:23:15;25.10;99.90
5846;DHT22;2949;50.778;7.094;2023-08-01T08:25:41;24.10;99.90
5846;DHT22;2949;50.778;7.094;2023-08-01T08:28:07;24.30;99.90
5846;DHT22;2949;50.778;7.094;2023-08-01T08:30:33;23.90;99.90
5846;DHT22;2949;50.778;7.094;2023-08-01T08:32:58;24.50;99.90
5846;DHT22;2949;50.778;7.094;2023-08-01T08:35:29;24.10;99.90
5846;DHT22;2949;50.778;7.094;2023-08-01T08:37:55;23.20;99.90
5846;DHT22;2949;50.778;7.094;2023-08-01T08:40:21;22.60;99.90
5846;DHT22;2949;50.778;7.094;2023-08-01T08:42:46;22.00;99.90
5846;DHT22;2949;50.778;7.094;2023-08-01T08:45:17;21.40;99.90
5846;DHT22;2949;50.778;7.094;2023-08-01T08:47:44;20.90;99.90
5846;DHT22;2949;50.778;7.094;2023-08-01T08:50:14;20.40;99.90
5846;DHT22;2949;50.778;7.094;2023-08-01T08:52:40;20.20;99.90
5846;DHT22;2949;50.778;7.094;2023-08-01T08:55:06;20.10;99.90
5846;DHT22;2949;50.778;7.094;2023-08-01T08:57:33;20.20;99.90
5846;DHT22;2949;50.778;7.094;2023-08-01T08:59:59;20.20;99.90
5846;DHT22;2949;50.778;7.094;2023-08-01T09:02:30;20.60;99.90
5846;DHT22;2949;50.778;7.094;2023-08-01T09:04:57;21.50;99.90
5846;DHT22;2949;50.778;7.094;2023-08-01T09:07:24;21.90;99.90
5846;DHT22;2949;50.778;7.094;2023-08-01T09:09:51;23.50;99.90
5846;DHT22;2949;50.778;7.094;2023-08-01T09:12:16;25.40;99.90
5846;DHT22;2949;50.778;7.094;2023-08-01T09:14:42;27.50;99.90
5846;DHT22;2949;50.778;7.094;2023-08-01T09:17:09;28.40;97.50
5846;DHT22;2949;50.778;7.094;2023-08-01T09:19:34;29.10;94.70
5846;DHT22;2949;50.778;7.094;2023-08-01T09:22:00;29.40;91.70
5846;DHT22;2949;50.778;7.094;2023-08-01T09:24:26;29.30;92.60
5846;DHT22;2949;50.778;7.094;2023-08-01T09:26:51;29.30;91.30
5846;DHT22;2949;50.778;7.094;2023-08-01T09:29:18;27.90;91.90
5846;DHT22;2949;50.778;7.094;2023-08-01T09:31:45;27.70;93.60
5846;DHT22;2949;50.778;7.094;2023-08-01T09:34:24;26.60;95.90
5846;DHT22;2949;50.778;7.094;2023-08-01T09:36:51;26.60;96.60
5846;DHT22;2949;50.778;7.094;2023-08-01T09:39:18;25.80;98.60
5846;DHT22;2949;50.778;7.094;2023-08-01T09:41:44;24.90;99.90
5846;DHT22;2949;50.778;7.094;2023-08-01T09:44:11;25.80;99.90
5846;DHT22;2949;50.778;7.094;2023-08-01T09:46:37;26.70;99.30
5846;DHT22;2949;50.778;7.094;2023-08-01T09:49:12;27.70;94.80
5846;DHT22;2949;50.778;7.094;2023-08-01T09:51:49;27.50;94.10
5846;DHT22;2949;50.778;7.094;2023-08-01T09:54:15;27.00;94.40
5846;DHT22;2949;50.778;7.094;2023-08-01T09:56:46;27.10;95.00
5846;DHT22;2949;50.778;7.094;2023-08-01T09:59:13;27.40;93.10
5846;DHT22;2949;50.778;7.094;2023-08-01T10:01:42;28.00;92.20
5846;DHT22;2949;50.778;7.094;2023-08-01T10:04:09;27.70;92.20
5846;DHT22;2949;50.778;7.094;2023-08-01T10:06:37;27.20;93.00
5846;DHT22;2949;50.778;7.094;2023-08-01T10:09:04;25.90;94.20
5846;DHT22;2949;50.778;7.094;2023-08-01T10:11:33;24.80;99.10
5846;DHT22;2949;50.778;7.094;2023-08-01T10:14:00;24.00;99.90
5846;DHT22;2949;50.778;7.094;2023-08-01T10:16:26;23.30;99.90
5846;DHT22;2949;50.778;7.094;2023-08-01T10:18:52;24.20;99.90
5846;DHT22;2949;50.778;7.094;2023-08-01T10:21:19;26.00;99.90
5846;DHT22;2949;50.778;7.094;2023-08-01T10:23:47;27.30;95.80
5846;DHT22;2949;50.778;7.094;2023-08-01T10:26:13;27.50;93.90
5846;DHT22;2949;50.778;7.094;2023-08-01T10:28:41;27.90;93.70
5846;DHT22;2949;50.778;7.094;2023-08-01T10:31:17;28.30;90.00
5846;DHT22;2949;50.778;7.094;2023-08-01T10:33:45;27.60;90.20
5846;DHT22;2949;50.778;7.094;2023-08-01T10:36:17;26.00;93.70
5846;DHT22;2949;50.778;7.094;2023-08-01T10:39:00;25.50;98.20
5846;DHT22;2949;50.778;7.094;2023-08-01T10:41:32;26.50;97.90
5846;DHT22;2949;50.778;7.094;2023-08-01T10:44:12;26.70;96.40
5846;DHT22;2949;50.778;7.094;2023-08-01T10:49:20;25.10;97.60
5846;DHT22;2949;50.778;7.094;2023-08-01T10:51:47;23.60;99.90
5846;DHT22;2949;50.778;7.094;2023-08-01T10:54:22;22.40;99.90
5846;DHT22;2949;50.778;7.094;2023-08-01T10:56:50;21.80;99.90
5846;DHT22;2949;50.778;7.094;2023-08-01T10:59:16;22.60;99.90
5846;DHT22;2949;50.778;7.094;2023-08-01T11:01:47;23.80;99.90
5846;DHT22;2949;50.778;7.094;2023-08-01T11:04:20;24.80;99.90
5846;DHT22;2949;50.778;7.094;2023-08-01T11:06:50;24.90;99.90
5846;DHT22;2949;50.778;7.094;2023-08-01T11:09:25;24.80;99.90
5846;DHT22;2949;50.778;7.094;2023-08-01T11:12:00;24.50;99.90
5846;DHT22;2949;50.778;7.094;2023-08-01T11:14:27;24.40;99.90
5846;DHT22;2949;50.778;7.094;2023-08-01T11:16:56;24.40;99.90
5846;DHT22;2949;50.778;7.094;2023-08-01T11:19:27;24.60;99.90
5846;DHT22;2949;50.778;7.094;2023-08-01T11:21:53;24.80;99.90
5846;DHT22;2949;50.778;7.094;2023-08-01T11:24:22;24.70;99.90
5846;DHT22;2949;50.778;7.094;2023-08-01T11:26:49;24.60;99.90
5846;DHT22;2949;50.778;7.094;2023-08-01T11:29:17;24.50;99.90
5846;DHT22;2949;50.778;7.094;2023-08-01T11:32:01;24.20;99.90
5846;DHT22;2949;50.778;7.094;2023-08-01T11:34:27;24.10;99.90
5846;DHT22;2949;50.778;7.094;2023-08-01T11:36:53;24.00;99.90
5846;DHT22;2949;50.778;7.094;2023-08-01T11:39:18;23.80;99.90
5846;DHT22;2949;50.778;7.094;2023-08-01T11:41:45;23.60;99.90
5846;DHT22;2949;50.778;7.094;2023-08-01T11:44:10;23.50;99.90
5846;DHT22;2949;50.778;7.094;2023-08-01T11:46:37;23.50;99.90
5846;DHT22;2949;50.778;7.094;2023-08-01T11:49:07;23.40;99.90
5846;DHT22;2949;50.778;7.094;2023-08-01T11:51:41;23.50;99.90
5846;DHT22;2949;50.778;7.094;2023-08-01T11:54:06;23.20;99.90
5846;DHT22;2949;50.778;7.094;2023-08-01T11:56:33;23.00;99.90
5846;DHT22;2949;50.778;7.094;2023-08-01T11:58:58;22.90;99.90
5846;DHT22;2949;50.778;7.094;2023-08-01T12:01:25;22.80;99.90
5846;DHT22;2949;50.778;7.094;2023-08-01T12:03:52;22.80;99.90
5846;DHT22;2949;50.778;7.094;2023-08-01T12:06:20;22.60;99.90
5846;DHT22;2949;50.778;7.094;2023-08-01T12:08:48;22.60;99.90
5846;DHT22;2949;50.778;7.094;2023-08-01T12:13:44;21.70;99.90
5846;DHT22;2949;50.778;7.094;2023-08-01T12:16:10;21.50;99.90
5846;DHT22;2949;50.778;7.094;2023-08-01T12:18:35;21.60;99.90
5846;DHT22;2949;50.778;7.094;2023-08-01T12:21:02;22.40;99.90
5846;DHT22;2949;50.778;7.094;2023-08-01T12:23:31;22.90;99.90
5846;DHT22;2949;50.778;7.094;2023-08-01T12:25:56;23.10;99.90
5846;DHT22;2949;50.778;7.094;2023-08-01T12:28:22;23.50;99.90
5846;DHT22;2949;50.778;7.094;2023-08-01T12:30:47;23.60;99.90
5846;DHT22;2949;50.778;7.094;2023-08-01T12:33:13;23.50;99.90
5846;DHT22;2949;50.778;7.094;2023-08-01T12:35:40;23.40;99.90
5846;DHT22;2949;50.778;7.094;2023-08-01T12:38:07;23.40;99.90
5846;DHT22;2949;50.778;7.094;2023-08-01T12:40:32;22.80;99.90
5846;DHT22;2949;50.778;7.094;2023-08-01T12:42:58;22.40;99.90
5846;DHT22;2949;50.778;7.094;2023-08-01T12:45:23;22.00;99.90
5846;DHT22;2949;50.778;7.094;2023-08-01T12:47:49;21.70;99.90
5846;DHT22;2949;50.778;7.094;2023-08-01T12:50:15;21.30;99.90
5846;DHT22;2949;50.778;7.094;2023-08-01T12:52:40;21.30;99.90
5846;DHT22;2949;50.778;7.094;2023-08-01T12:55:06;21.50;99.90
5846;DHT22;2949;50.778;7.094;2023-08-01T12:57:33;21.60;99.90
5846;DHT22;2949;50.778;7.094;2023-08-01T12:59:59;21.70;99.90
5846;DHT22;2949;50.778;7.094;2023-08-01T13:02:25;21.70;99.90
5846;DHT22;2949;50.778;7.094;2023-08-01T13:04:51;21.80;99.90
5846;DHT22;2949;50.778;7.094;2023-08-01T13:07:16;22.00;99.90
5846;DHT22;2949;50.778;7.094;2023-08-01T13:09:42;22.20;99.90
5846;DHT22;2949;50.778;7.094;2023-08-01T13:12:08;22.40;99.90
5846;DHT22;2949;50.778;7.094;2023-08-01T13:14:33;22.40;99.90
5846;DHT22;2949;50.778;7.094;2023-08-01T13:16:59;22.60;99.90
5846;DHT22;2949;50.778;7.094;2023-08-01T13:19:25;23.10;99.90
5846;DHT22;2949;50.778;7.094;2023-08-01T13:21:51;23.60;99.90
5846;DHT22;2949;50.778;7.094;2023-08-01T13:24:16;24.00;99.90
5846;DHT22;2949;50.778;7.094;2023-08-01T13:26:42;23.90;99.90
5846;DHT22;2949;50.778;7.094;2023-08-01T13:29:07;23.90;99.90
5846;DHT22;2949;50.778;7.094;2023-08-01T13:31:33;23.80;99.90
5846;DHT22;2949;50.778;7.094;2023-08-01T13:33:58;23.70;99.90
5846;DHT22;2949;50.778;7.094;2023-08-01T13:36:24;23.40;99.90
5846;DHT22;2949;50.778;7.094;2023-08-01T13:38:50;23.40;99.90
5846;DHT22;2949;50.778;7.094;2023-08-01T13:41:16;23.30;99.90
5846;DHT22;2949;50.778;7.094;2023-08-01T13:43:41;23.20;99.90
5846;DHT22;2949;50.778;7.094;2023-08-01T13:48:43;23.50;99.90
5846;DHT22;2949;50.778;7.094;2023-08-01T13:51:09;23.50;99.90
5846;DHT22;2949;50.778;7.094;2023-08-01T13:53:35;23.50;99.90
5846;DHT22;2949;50.778;7.094;2023-08-01T13:56:06;23.70;99.90
5846;DHT22;2949;50.778;7.094;2023-08-01T13:58:32;23.80;99.90
5846;DHT22;2949;50.778;7.094;2023-08-01T14:01:02;23.90;99.90
5846;DHT22;2949;50.778;7.094;2023-08-01T14:03:28;24.00;99.90
5846;DHT22;2949;50.778;7.094;2023-08-01T14:05:54;23.90;99.20
5846;DHT22;2949;50.778;7.094;2023-08-01T14:08:19;23.80;98.90
5846;DHT22;2949;50.778;7.094;2023-08-01T14:10:45;23.60;99.10
5846;DHT22;2949;50.778;7.094;2023-08-01T14:13:10;23.50;99.40
5846;DHT22;2949;50.778;7.094;2023-08-01T14:15:35;23.10;99.50
5846;DHT22;2949;50.778;7.094;2023-08-01T14:18:01;22.90;99.90
5846;DHT22;2949;50.778;7.094;2023-08-01T14:20:26;22.60;99.90
5846;DHT22;2949;50.778;7.094;2023-08-01T14:22:52;22.30;99.90
5846;DHT22;2949;50.778;7.094;2023-08-01T14:25:17;21.80;99.90
5846;DHT22;2949;50.778;7.094;2023-08-01T14:27:43;20.70;99.90
5846;DHT22;2949;50.778;7.094;2023-08-01T14:30:09;20.00;99.90
5846;DHT22;2949;50.778;7.094;2023-08-01T14:32:37;19.60;99.90
5846;DHT22;2949;50.778;7.094;2023-08-01T14:35:02;19.50;99.90
5846;DHT22;2949;50.778;7.094;2023-08-01T14:37:28;19.70;99.90
5846;DHT22;2949;50.778;7.094;2023-08-01T14:39:55;20.00;99.90
5846;DHT22;2949;50.778;7.094;2023-08-01T14:42:20;20.20;99.90
5846;DHT22;2949;50.778;7.094;2023-08-01T14:44:52;20.50;99.90
5846;DHT22;2949;50.778;7.094;2023-08-01T14:47:18;20.50;99.90
5846;DHT22;2949;50.778;7.094;2023-08-01T14:49:44;20.50;99.90
5846;DHT22;2949;50.778;7.094;2023-08-01T14:52:10;20.40;99.90
5846;DHT22;2949;50.778;7.094;2023-08-01T14:54:35;20.40;99.90
5846;DHT22;2949;50.778;7.094;2023-08-01T14:57:02;20.50;99.90
5846;DHT22;2949;50.778;7.094;2023-08-01T14:59:28;20.80;99.90
5846;DHT22;2949;50.778;7.094;2023-08-01T15:01:53;21.50;99.90
5846;DHT22;2949;50.778;7.094;2023-08-01T15:04:19;22.00;99.90
5846;DHT22;2949;50.778;7.094;2023-08-01T15:06:44;22.30;99.90
5846;DHT22;2949;50.778;7.094;2023-08-01T15:09:10;22.50;99.90
5846;DHT22;2949;50.778;7.094;2023-08-01T15:11:35;22.40;99.90
5846;DHT22;2949;50.778;7.094;2023-08-01T15:14:01;22.10;99.90
5846;DHT22;2949;50.778;7.094;2023-08-01T15:16:27;22.00;99.90
5846;DHT22;2949;50.778;7.094;2023-08-01T15:18:52;22.10;99.90
5846;DHT22;2949;50.778;7.094;2023-08-01T15:21:17;22.00;99.90
5846;DHT22;2949;50.778;7.094;2023-08-01T15:23:45;21.90;99.90
5846;DHT22;2949;50.778;7.094;2023-08-01T15:26:11;21.90;99.90
5846;DHT22;2949;50.778;7.094;2023-08-01T15:28:36;21.90;99.90
5846;DHT22;2949;50.778;7.094;2023-08-01T15:31:06;21.60;99.90
5846;DHT22;2949;50.778;7.094;2023-08-01T15:33:37;21.40;99.90
5846;DHT22;2949;50.778;7.094;2023-08-01T15:36:05;21.20;99.90
5846;DHT22;2949;50.778;7.094;2023-08-01T15:38:33;20.90;99.90
5846;DHT22;2949;50.778;7.094;2023-08-01T15:40:59;20.60;99.90
5846;DHT22;2949;50.778;7.094;2023-08-01T15:43:28;20.40;99.90
5846;DHT22;2949;50.778;7.094;2023-08-01T15:45:55;20.00;99.90
5846;DHT22;2949;50.778;7.094;2023-08-01T15:48:21;19.80;99.90
5846;DHT22;2949;50.778;7.094;2023-08-01T15:50:46;19.60;99.90
5846;DHT22;2949;50.778;7.094;2023-08-01T15:53:12;19.60;99.90
5846;DHT22;2949;50.778;7.094;2023-08-01T15:55:37;19.50;99.90
5846;DHT22;2949;50.778;7.094;2023-08-01T15:58:03;19.30;99.90
5846;DHT22;2949;50.778;7.094;2023-08-01T16:00:28;19.20;99.90
5846;DHT22;2949;50.778;7.094;2023-08-01T16:02:54;19.00;99.90
5846;DHT22;2949;50.778;7.094;2023-08-01T16:05:19;18.80;99.90